createdAt,value
2018-09-19T00:00:35.576Z,95.40
2018-09-19T00:03:04.402Z,95.50
2018-09-19T00:05:33.260Z,95.70
2018-09-19T00:08:02.664Z,95.80
2018-09-19T00:10:31.346Z,95.90
2018-09-19T00:13:00.139Z,95.80
2018-09-19T00:15:28.829Z,96.10
2018-09-19T00:17:57.433Z,96.20
2018-09-19T00:20:26.779Z,96.00
2018-09-19T00:22:55.413Z,96.00
2018-09-19T00:25:24.056Z,96.00
2018-09-19T00:27:52.757Z,95.90
2018-09-19T00:30:21.379Z,96.10
2018-09-19T00:32:50.054Z,96.20
2018-09-19T00:35:18.681Z,96.30
2018-09-19T00:37:47.338Z,96.30
2018-09-19T00:40:16.055Z,96.70
2018-09-19T00:42:45.683Z,96.40
2018-09-19T00:45:14.370Z,96.50
2018-09-19T00:47:43.004Z,96.60
2018-09-19T00:50:11.682Z,96.70
2018-09-19T00:52:40.299Z,96.70
2018-09-19T00:55:09.217Z,96.70
2018-09-19T00:57:37.953Z,96.80
2018-09-19T01:00:07.166Z,96.70
2018-09-19T01:02:35.959Z,96.60
2018-09-19T01:05:04.975Z,96.80
2018-09-19T01:07:33.621Z,96.90
2018-09-19T01:10:02.316Z,96.90
2018-09-19T01:12:30.947Z,96.90
2018-09-19T01:14:59.613Z,96.90
2018-09-19T01:17:28.272Z,96.90
2018-09-19T01:19:56.966Z,97.00
2018-09-19T01:22:25.992Z,97.00
2018-09-19T01:24:54.656Z,97.10
2018-09-19T01:27:23.423Z,97.20
2018-09-19T01:29:52.017Z,97.20
2018-09-19T01:32:20.815Z,97.20
2018-09-19T01:34:49.613Z,97.50
2018-09-19T01:37:18.354Z,97.30
2018-09-19T01:39:46.998Z,97.40
2018-09-19T01:42:15.906Z,97.50
2018-09-19T01:44:45.120Z,97.50
2018-09-19T01:47:13.891Z,97.50
2018-09-19T01:49:42.598Z,97.70
2018-09-19T01:52:11.276Z,98.00
2018-09-19T01:54:39.922Z,98.10
2018-09-19T01:57:08.701Z,97.90
2018-09-19T01:59:37.372Z,97.80
2018-09-19T02:02:06.742Z,97.80
2018-09-19T02:04:35.423Z,97.80
2018-09-19T02:07:04.105Z,97.80
2018-09-19T02:09:32.841Z,97.90
2018-09-19T02:12:01.838Z,98.10
2018-09-19T02:14:30.594Z,97.90
2018-09-19T02:16:59.564Z,98.00
2018-09-19T02:19:28.460Z,98.10
2018-09-19T02:21:57.103Z,98.30
2018-09-19T02:24:25.763Z,98.40
2018-09-19T02:26:55.019Z,98.50
2018-09-19T02:29:24.516Z,98.30
2018-09-19T02:31:53.211Z,98.30
2018-09-19T02:34:21.795Z,98.30
2018-09-19T02:36:50.617Z,98.30
2018-09-19T02:39:19.238Z,98.50
2018-09-19T02:41:48.557Z,98.40
2018-09-19T02:44:17.834Z,98.50
2018-09-19T02:46:46.538Z,98.50
2018-09-19T02:49:15.192Z,98.40
2018-09-19T02:51:43.852Z,98.60
2018-09-19T02:54:12.484Z,98.50
2018-09-19T02:56:41.113Z,98.50
2018-09-19T02:59:09.852Z,98.40
2018-09-19T03:01:38.665Z,98.20
2018-09-19T03:04:07.346Z,98.20
2018-09-19T03:06:36.009Z,98.20
2018-09-19T03:09:05.925Z,98.20
2018-09-19T03:11:34.523Z,98.20
2018-09-19T03:14:03.202Z,98.30
2018-09-19T03:16:31.844Z,98.40
2018-09-19T03:19:00.416Z,98.40
2018-09-19T03:21:28.979Z,98.20
2018-09-19T03:23:57.558Z,98.30
2018-09-19T03:26:26.212Z,98.30
2018-09-19T03:28:54.865Z,98.40
2018-09-19T03:31:23.525Z,98.50
2018-09-19T03:33:52.185Z,98.60
2018-09-19T03:36:20.735Z,98.80
2018-09-19T03:38:49.642Z,98.70
2018-09-19T03:41:18.255Z,98.60
2018-09-19T03:43:46.950Z,98.60
2018-09-19T03:46:16.243Z,98.70
2018-09-19T03:48:45.719Z,98.80
2018-09-19T03:51:14.359Z,98.90
2018-09-19T03:53:43.044Z,98.70
2018-09-19T03:56:12.492Z,98.70
2018-09-19T03:58:41.183Z,98.70
2018-09-19T04:01:09.812Z,98.70
2018-09-19T04:03:38.949Z,98.70
2018-09-19T04:06:07.574Z,98.90
2018-09-19T04:08:36.189Z,99.00
2018-09-19T04:11:04.742Z,99.20
2018-09-19T04:13:33.311Z,99.20
2018-09-19T04:16:01.918Z,99.40
2018-09-19T04:18:30.492Z,99.40
2018-09-19T04:20:59.159Z,99.50
2018-09-19T04:23:27.805Z,99.20
2018-09-19T04:25:56.487Z,99.10
2018-09-19T04:28:25.168Z,99.10
2018-09-19T04:30:53.801Z,99.10
2018-09-19T04:33:22.439Z,99.00
2018-09-19T04:35:51.013Z,99.00
2018-09-19T04:38:19.609Z,99.00
2018-09-19T04:40:48.426Z,99.00
2018-09-19T04:43:17.056Z,99.10
2018-09-19T04:45:45.684Z,99.10
2018-09-19T04:48:14.380Z,99.10
2018-09-19T04:50:45.332Z,99.30
2018-09-19T04:53:14.275Z,99.20
2018-09-19T04:55:42.874Z,99.20
2018-09-19T04:58:11.671Z,99.20
2018-09-19T05:00:40.264Z,99.20
2018-09-19T05:03:09.005Z,99.40
2018-09-19T05:05:37.835Z,99.50
2018-09-19T05:08:06.893Z,99.60
2018-09-19T05:10:35.633Z,99.60
2018-09-19T05:13:04.419Z,99.50
2018-09-19T05:15:33.942Z,99.60
2018-09-19T05:18:02.572Z,99.70
2018-09-19T05:20:31.169Z,99.80
2018-09-19T05:22:59.809Z,99.80
2018-09-19T05:25:28.411Z,99.80
2018-09-19T05:27:57.013Z,99.80
2018-09-19T05:30:25.687Z,99.80
2018-09-19T05:32:54.317Z,99.90
2018-09-19T05:35:22.954Z,99.90
2018-09-19T05:37:51.707Z,99.90
2018-09-19T05:40:20.400Z,99.90
2018-09-19T05:42:49.227Z,99.90
2018-09-19T05:45:18.068Z,99.90
2018-09-19T05:47:46.835Z,99.90
2018-09-19T05:50:15.521Z,99.90
2018-09-19T05:52:44.219Z,99.90
2018-09-19T05:55:12.994Z,99.90
2018-09-19T05:57:41.737Z,99.90
2018-09-19T06:00:10.988Z,99.90
2018-09-19T06:02:39.618Z,99.90
2018-09-19T06:05:13.381Z,99.90
2018-09-19T06:07:42.343Z,99.90
2018-09-19T06:10:11.741Z,99.90
2018-09-19T06:12:40.813Z,99.90
2018-09-19T06:15:09.827Z,99.90
2018-09-19T06:17:38.755Z,99.90
2018-09-19T06:20:07.390Z,99.90
2018-09-19T06:22:36.255Z,99.90
2018-09-19T06:25:06.425Z,99.90
2018-09-19T06:27:35.273Z,99.90
2018-09-19T06:30:04.056Z,99.90
2018-09-19T06:32:33.631Z,99.90
2018-09-19T06:35:02.584Z,99.90
2018-09-19T06:37:31.467Z,99.90
2018-09-19T06:40:00.451Z,99.90
2018-09-19T06:42:29.644Z,99.90
2018-09-19T06:44:58.850Z,99.90
2018-09-19T06:47:32.094Z,99.90
2018-09-19T06:50:00.965Z,99.90
2018-09-19T06:52:31.182Z,99.90
2018-09-19T06:55:01.818Z,99.90
2018-09-19T06:57:31.248Z,99.90
2018-09-19T07:00:00.563Z,99.90
2018-09-19T07:02:29.313Z,99.90
2018-09-19T07:04:58.442Z,99.90
2018-09-19T07:07:28.869Z,99.90
2018-09-19T07:09:57.819Z,99.90
2018-09-19T07:12:28.036Z,99.90
2018-09-19T07:14:56.924Z,99.90
2018-09-19T07:17:30.144Z,99.90
2018-09-19T07:19:59.369Z,99.90
2018-09-19T07:22:28.857Z,99.90
2018-09-19T07:24:57.925Z,99.90
2018-09-19T07:27:27.296Z,99.90
2018-09-19T07:29:56.473Z,99.00
2018-09-19T07:32:25.306Z,98.10
2018-09-19T07:34:55.169Z,97.70
2018-09-19T07:37:24.047Z,97.60
2018-09-19T07:39:53.025Z,98.00
2018-09-19T07:42:22.300Z,97.90
2018-09-19T07:44:51.208Z,98.00
2018-09-19T07:47:20.074Z,98.60
2018-09-19T07:49:49.613Z,99.20
2018-09-19T07:52:20.208Z,98.60
2018-09-19T07:54:50.133Z,99.60
2018-09-19T07:57:20.467Z,99.90
2018-09-19T07:59:49.515Z,99.90
2018-09-19T08:02:18.446Z,99.20
2018-09-19T08:04:54.671Z,97.90
2018-09-19T08:07:23.658Z,97.60
2018-09-19T08:10:05.378Z,97.90
2018-09-19T08:12:34.660Z,98.70
2018-09-19T08:15:03.523Z,98.80
2018-09-19T08:17:40.314Z,98.40
2018-09-19T08:20:09.863Z,98.30
2018-09-19T08:22:38.851Z,98.00
2018-09-19T08:25:07.807Z,98.40
2018-09-19T08:27:37.129Z,98.90
2018-09-19T08:30:05.816Z,98.80
2018-09-19T08:32:34.471Z,98.00
2018-09-19T08:35:03.215Z,97.50
2018-09-19T08:37:32.735Z,97.30
2018-09-19T08:40:01.488Z,96.60
2018-09-19T08:42:31.056Z,97.00
2018-09-19T08:44:59.830Z,97.10
2018-09-19T08:47:28.567Z,97.40
2018-09-19T08:49:57.526Z,97.70
2018-09-19T08:52:26.235Z,97.40
2018-09-19T08:54:56.386Z,96.80
2018-09-19T08:57:25.200Z,97.20
2018-09-19T08:59:53.834Z,97.30
2018-09-19T09:02:22.870Z,97.60
2018-09-19T09:04:51.703Z,97.60
2018-09-19T09:07:21.015Z,97.80
2018-09-19T09:09:50.708Z,97.50
2018-09-19T09:12:19.514Z,97.40
2018-09-19T09:14:48.173Z,97.40
2018-09-19T09:17:16.899Z,97.30
2018-09-19T09:19:45.608Z,97.10
2018-09-19T09:22:14.384Z,97.30
2018-09-19T09:24:43.157Z,96.90
2018-09-19T09:27:12.164Z,96.80
2018-09-19T09:29:40.817Z,96.60
2018-09-19T09:32:09.538Z,97.10
2018-09-19T09:34:38.365Z,97.00
2018-09-19T09:37:07.146Z,97.00
2018-09-19T09:39:36.515Z,97.50
2018-09-19T09:42:05.331Z,97.20
2018-09-19T09:44:34.076Z,96.70
2018-09-19T09:47:03.060Z,98.00
2018-09-19T09:49:31.785Z,99.90
2018-09-19T09:52:00.605Z,99.90
2018-09-19T09:54:29.300Z,98.50
2018-09-19T09:56:58.772Z,95.90
2018-09-19T09:59:27.383Z,99.30
2018-09-19T10:01:56.179Z,99.90
2018-09-19T10:04:24.893Z,99.90
2018-09-19T10:06:53.538Z,99.90
2018-09-19T10:09:22.183Z,94.90
2018-09-19T10:11:50.901Z,92.90
2018-09-19T10:14:19.596Z,93.70
2018-09-19T10:16:48.891Z,92.20
2018-09-19T10:19:17.620Z,91.50
2018-09-19T10:21:46.318Z,91.40
2018-09-19T10:24:15.009Z,90.90
2018-09-19T10:26:43.903Z,85.00
2018-09-19T10:29:12.780Z,86.90
2018-09-19T10:31:41.528Z,85.30
2018-09-19T10:34:10.304Z,81.40
2018-09-19T10:36:39.082Z,79.20
2018-09-19T10:39:08.158Z,69.00
2018-09-19T10:41:37.151Z,61.70
2018-09-19T10:44:05.994Z,61.40
2018-09-19T10:46:34.724Z,65.00
2018-09-19T10:49:04.018Z,65.40
2018-09-19T10:51:32.695Z,68.00
2018-09-19T10:54:01.502Z,70.40
2018-09-19T10:56:30.196Z,69.80
2018-09-19T10:58:58.861Z,68.40
2018-09-19T11:01:28.153Z,66.20
2018-09-19T11:03:56.797Z,65.00
2018-09-19T11:06:25.432Z,64.70
2018-09-19T11:09:00.540Z,64.50
2018-09-19T11:11:29.198Z,65.30
2018-09-19T11:13:57.840Z,64.80
2018-09-19T11:16:26.477Z,66.50
2018-09-19T11:18:55.174Z,67.50
2018-09-19T11:21:23.859Z,71.30
2018-09-19T11:23:52.633Z,74.00
2018-09-19T11:26:21.409Z,74.90
2018-09-19T11:28:50.136Z,72.50
2018-09-19T11:31:18.869Z,70.70
2018-09-19T11:33:47.556Z,62.70
2018-09-19T11:36:16.288Z,59.80
2018-09-19T11:38:44.946Z,60.20
2018-09-19T11:41:13.589Z,60.60
2018-09-19T11:43:43.538Z,54.10
2018-09-19T11:46:12.284Z,60.00
2018-09-19T11:48:40.995Z,58.80
2018-09-19T11:51:09.669Z,54.50
2018-09-19T11:53:38.304Z,57.70
2018-09-19T11:56:07.017Z,55.10
2018-09-19T11:58:35.734Z,56.00
2018-09-19T12:01:04.502Z,55.60
2018-09-19T12:03:33.231Z,52.80
2018-09-19T12:06:01.958Z,51.20
2018-09-19T12:08:31.268Z,48.90
2018-09-19T12:11:00.003Z,46.60
2018-09-19T12:13:28.675Z,48.60
2018-09-19T12:15:57.354Z,45.20
2018-09-19T12:18:26.077Z,45.70
2018-09-19T12:20:54.774Z,48.20
2018-09-19T12:23:23.600Z,45.50
2018-09-19T12:25:52.403Z,49.20
2018-09-19T12:28:21.166Z,50.30
2018-09-19T12:30:50.138Z,45.80
2018-09-19T12:33:19.011Z,43.80
2018-09-19T12:35:47.766Z,47.50
2018-09-19T12:38:16.584Z,46.10
2018-09-19T12:40:45.293Z,47.50
2018-09-19T12:43:14.034Z,45.80
2018-09-19T12:45:42.726Z,46.40
2018-09-19T12:48:11.839Z,46.30
2018-09-19T12:50:40.723Z,50.80
2018-09-19T12:53:09.435Z,51.60
2018-09-19T12:55:38.178Z,51.00
2018-09-19T12:58:06.906Z,47.60
2018-09-19T13:00:35.596Z,50.40
2018-09-19T13:03:04.346Z,47.40
2018-09-19T13:05:32.947Z,45.10
2018-09-19T13:08:01.662Z,46.00
2018-09-19T13:10:30.401Z,46.60
2018-09-19T13:13:02.737Z,48.40
2018-09-19T13:15:31.382Z,51.40
2018-09-19T13:18:00.115Z,50.30
2018-09-19T13:20:28.801Z,48.50
2018-09-19T13:22:57.498Z,50.00
2018-09-19T13:25:26.247Z,48.40
2018-09-19T13:27:55.053Z,47.90
2018-09-19T13:30:23.716Z,51.00
2018-09-19T13:32:52.535Z,51.40
2018-09-19T13:35:21.228Z,53.40
2018-09-19T13:37:50.043Z,49.60
2018-09-19T13:40:18.678Z,50.80
2018-09-19T13:42:47.361Z,48.10
2018-09-19T13:45:16.088Z,46.10
2018-09-19T13:47:44.767Z,45.80
2018-09-19T13:51:22.861Z,45.80
2018-09-19T13:53:51.843Z,47.80
2018-09-19T13:56:21.065Z,47.80
2018-09-19T13:58:49.917Z,48.20
2018-09-19T14:01:18.713Z,48.80
2018-09-19T14:03:47.524Z,49.10
2018-09-19T14:06:16.197Z,50.20
2018-09-19T14:08:44.925Z,50.60
2018-09-19T14:11:13.557Z,50.80
2018-09-19T14:13:42.227Z,51.50
2018-09-19T14:16:10.837Z,52.10
2018-09-19T14:18:39.496Z,51.60
2018-09-19T14:21:08.269Z,51.50
2018-09-19T14:23:36.833Z,51.70
2018-09-19T14:26:06.063Z,52.10
2018-09-19T14:28:34.748Z,54.80
2018-09-19T14:31:03.491Z,55.00
2018-09-19T14:33:32.715Z,53.50
2018-09-19T14:36:02.034Z,53.40
2018-09-19T14:38:30.879Z,54.70
2018-09-19T14:40:59.493Z,54.00
2018-09-19T14:43:28.326Z,53.60
2018-09-19T14:45:57.037Z,53.70
2018-09-19T14:48:26.503Z,55.90
2018-09-19T14:50:55.136Z,57.80
2018-09-19T14:53:23.933Z,56.50
2018-09-19T14:55:52.728Z,56.20
2018-09-19T14:58:21.699Z,57.00
2018-09-19T15:00:50.564Z,56.60
2018-09-19T15:03:19.305Z,55.90
2018-09-19T15:05:48.150Z,55.00
2018-09-19T15:08:17.180Z,53.70
2018-09-19T15:10:46.253Z,53.50
2018-09-19T15:13:15.238Z,53.90
2018-09-19T15:15:44.027Z,55.20
2018-09-19T15:18:13.017Z,55.50
2018-09-19T15:20:41.704Z,54.20
2018-09-19T15:23:10.507Z,54.00
2018-09-19T15:25:39.381Z,54.00
2018-09-19T15:28:12.727Z,54.20
2018-09-19T15:30:45.935Z,54.80
2018-09-19T15:33:15.737Z,55.20
2018-09-19T15:35:44.566Z,55.60
2018-09-19T15:38:13.432Z,56.50
2018-09-19T15:40:42.302Z,56.80
2018-09-19T15:43:11.197Z,56.00
2018-09-19T15:45:40.186Z,56.30
2018-09-19T15:48:09.129Z,56.50
2018-09-19T15:50:38.597Z,56.90
2018-09-19T15:53:07.396Z,57.50
2018-09-19T15:55:36.166Z,58.10
2018-09-19T15:58:05.518Z,58.70
2018-09-19T16:00:35.117Z,59.10
2018-09-19T16:03:03.897Z,59.60
2018-09-19T16:05:32.700Z,60.00
2018-09-19T16:08:02.168Z,60.40
2018-09-19T16:10:30.977Z,61.20
2018-09-19T16:13:00.160Z,61.60
2018-09-19T16:15:29.025Z,61.70
2018-09-19T16:17:57.795Z,61.50
2018-09-19T16:20:26.636Z,61.90
2018-09-19T16:22:56.569Z,62.00
2018-09-19T16:25:26.531Z,62.30
2018-09-19T16:27:55.517Z,62.30
2018-09-19T16:30:24.482Z,62.60
2018-09-19T16:32:53.476Z,62.90
2018-09-19T16:35:22.347Z,63.40
2018-09-19T16:37:51.126Z,64.20
2018-09-19T16:40:19.866Z,64.70
2018-09-19T16:42:49.238Z,65.10
2018-09-19T16:45:19.205Z,65.60
2018-09-19T16:47:48.776Z,65.80
2018-09-19T16:50:17.781Z,66.00
2018-09-19T16:52:46.727Z,65.70
2018-09-19T16:55:15.506Z,65.90
2018-09-19T16:57:45.168Z,66.00
2018-09-19T17:00:15.406Z,66.30
2018-09-19T17:02:45.075Z,67.20
2018-09-19T17:05:13.926Z,67.20
2018-09-19T17:07:43.501Z,67.50
2018-09-19T17:10:13.024Z,67.80
2018-09-19T17:12:43.118Z,68.10
2018-09-19T17:15:13.338Z,69.00
2018-09-19T17:17:42.066Z,68.60
2018-09-19T17:20:10.922Z,68.70
2018-09-19T17:22:39.649Z,69.10
2018-09-19T17:25:08.414Z,69.20
2018-09-19T17:27:38.362Z,69.70
2018-09-19T17:30:07.632Z,69.70
2018-09-19T17:32:36.470Z,69.80
2018-09-19T18:03:16.413Z,73.30
2018-09-19T18:05:45.166Z,73.60
2018-09-19T18:08:13.842Z,73.50
2018-09-19T18:10:42.494Z,73.90
2018-09-19T18:13:11.165Z,74.10
2018-09-19T18:15:41.227Z,74.40
2018-09-19T18:18:10.805Z,74.60
2018-09-19T18:20:40.787Z,75.00
2018-09-19T18:23:10.150Z,75.30
2018-09-19T18:25:39.775Z,75.80
2018-09-19T18:28:10.129Z,76.00
2018-09-19T18:30:39.597Z,76.60
2018-09-19T18:33:11.012Z,76.80
2018-09-19T18:35:39.885Z,76.80
2018-09-19T18:38:09.000Z,77.00
2018-09-19T18:40:38.163Z,76.70
2018-09-19T18:43:06.836Z,76.80
2018-09-19T18:45:35.757Z,76.90
2018-09-19T18:48:04.500Z,77.10
2018-09-19T18:50:33.150Z,77.70
2018-09-19T18:53:01.859Z,77.60
2018-09-19T18:55:30.662Z,77.70
2018-09-19T18:57:59.516Z,77.70
2018-09-19T19:00:28.197Z,78.00
2018-09-19T19:02:56.901Z,78.10
2018-09-19T19:05:25.538Z,78.40
2018-09-19T19:07:54.286Z,78.70
2018-09-19T19:10:24.065Z,78.90
2018-09-19T19:12:52.872Z,79.80
2018-09-19T19:15:21.517Z,79.40
2018-09-19T19:17:50.151Z,79.50
2018-09-19T19:20:18.775Z,79.60
2018-09-19T19:22:47.410Z,79.60
2018-09-19T19:25:16.760Z,79.80
2018-09-19T19:27:45.363Z,80.10
2018-09-19T19:30:14.021Z,80.30
2018-09-19T19:32:42.835Z,80.60
2018-09-19T19:35:11.919Z,80.90
2018-09-19T19:37:41.377Z,80.70
2018-09-19T19:40:09.963Z,80.70
2018-09-19T19:42:39.364Z,81.00
2018-09-19T19:45:08.089Z,81.00
2018-09-19T19:47:37.122Z,81.20
2018-09-19T19:50:06.081Z,81.30
2018-09-19T19:52:35.030Z,81.40
2018-09-19T19:55:03.614Z,81.60
2018-09-19T19:57:32.679Z,81.80
2018-09-19T20:00:01.402Z,81.90
2018-09-19T20:02:30.107Z,82.20
2018-09-19T20:04:59.151Z,82.20
2018-09-19T20:07:27.818Z,82.40
2018-09-19T20:09:56.502Z,82.50
2018-09-19T20:12:25.186Z,82.80
2018-09-19T20:14:54.005Z,82.80
2018-09-19T20:17:22.787Z,83.10
2018-09-19T20:19:51.398Z,83.30
2018-09-19T20:22:20.816Z,83.70
2018-09-19T20:24:49.508Z,83.80
2018-09-19T20:27:18.174Z,84.10
2018-09-19T20:29:47.165Z,84.20
2018-09-19T20:32:15.833Z,84.50
2018-09-19T20:34:44.589Z,84.60
2018-09-19T20:37:13.557Z,84.80
2018-09-19T20:39:42.263Z,85.00
2018-09-19T20:42:11.002Z,85.40
2018-09-19T20:44:39.711Z,85.50
2018-09-19T20:47:08.413Z,85.60
2018-09-19T20:49:37.201Z,86.20
2018-09-19T20:52:05.860Z,86.10
2018-09-19T20:54:36.054Z,86.10
2018-09-19T20:57:04.719Z,86.40
2018-09-19T20:59:33.288Z,86.80
2018-09-19T21:02:01.862Z,86.90
2018-09-19T21:04:30.656Z,87.20
2018-09-19T21:06:59.360Z,87.10
2018-09-19T21:09:27.970Z,87.30
2018-09-19T21:11:56.928Z,87.60
2018-09-19T21:14:25.601Z,87.90
2018-09-19T21:16:54.315Z,88.00
2018-09-19T21:19:23.003Z,88.10
2018-09-19T21:21:51.620Z,88.30
2018-09-19T21:24:20.288Z,88.50
2018-09-19T21:26:48.977Z,88.70
2018-09-19T21:29:18.134Z,88.80
2018-09-19T21:31:46.702Z,89.10
2018-09-19T21:34:15.435Z,89.20
2018-09-19T21:36:44.035Z,89.50
2018-09-19T21:39:12.646Z,89.70
2018-09-19T21:41:41.234Z,89.90
2018-09-19T21:44:09.831Z,90.00
2018-09-19T21:46:38.447Z,90.10
2018-09-19T21:49:08.191Z,90.20
2018-09-19T21:51:36.809Z,90.30
2018-09-19T21:54:05.390Z,90.50
2018-09-19T21:56:34.030Z,90.50
2018-09-19T21:59:02.792Z,90.60
2018-09-19T22:01:36.552Z,90.70
2018-09-19T22:04:05.208Z,90.90
2018-09-19T22:06:33.743Z,91.00
2018-09-19T22:09:02.363Z,91.10
2018-09-19T22:11:31.013Z,91.20
2018-09-19T22:14:00.200Z,91.20
2018-09-19T22:16:28.797Z,91.20
2018-09-19T22:18:57.440Z,91.30
2018-09-19T22:21:25.996Z,91.40
2018-09-19T22:23:54.646Z,91.50
2018-09-19T22:26:23.258Z,91.50
2018-09-19T22:28:51.873Z,91.80
2018-09-19T22:31:20.415Z,91.60
2018-09-19T22:33:49.002Z,91.60
2018-09-19T22:36:18.270Z,91.70
2018-09-19T22:38:46.982Z,91.70
2018-09-19T22:41:15.732Z,91.80
2018-09-19T22:43:44.318Z,92.00
2018-09-19T22:46:13.121Z,91.80
2018-09-19T22:48:41.771Z,92.00
2018-09-19T22:51:10.385Z,92.10
2018-09-19T22:53:39.472Z,92.30
2018-09-19T22:56:08.112Z,92.30
2018-09-19T22:58:36.790Z,92.30
